TimeSAST,TemperatureF,Dew PointF,Humidity,Sea Level PressureIn,VisibilityMPH,Wind Direction,Wind SpeedMPH,Gust SpeedMPH,PrecipitationIn,Events,Conditions,WindDirDegrees,DateUTC
2:00 AM,56,54,90,30.15,6,NNE,3.5,,,,,20,2014-03-28 00:00:00
5:00 AM,55,52,87,30.12,12,North,2.3,,,,,10,2014-03-28 03:00:00
5:00 AM,55.4,51.8,88,30.09,-9999.0,North,2.3,-,N/A,,Clear,10,2014-03-28 03:00:00
6:00 AM,55.4,51.8,88,30.09,-9999.0,North,3.5,-,N/A,,Clear,10,2014-03-28 04:00:00
7:00 AM,53.6,50.0,88,30.09,-9999.0,SE,3.5,-,N/A,,Clear,130,2014-03-28 05:00:00
8:00 AM,61,56,80,30.12,12,South,2.3,,,,Clear,180,2014-03-28 06:00:00
8:00 AM,60.8,57.2,88,30.09,-9999.0,Variable,2.3,-,N/A,,Clear,0,2014-03-28 06:00:00
9:00 AM,64.4,59.0,83,30.12,-9999.0,SSE,5.8,-,N/A,,Clear,150,2014-03-28 07:00:00
10:00 AM,69.8,59.0,68,30.12,-9999.0,East,3.5,-,N/A,,Clear,100,2014-03-28 08:00:00
11:00 AM,72,61,60,30.11,12,SE,4.6,,,,Clear,130,2014-03-28 09:00:00
11:00 AM,73.4,60.8,65,30.09,-9999.0,SE,4.6,-,N/A,,Clear,130,2014-03-28 09:00:00
12:00 PM,73.4,59.0,61,30.06,-9999.0,SE,6.9,-,N/A,,Clear,140,2014-03-28 10:00:00
1:00 PM,75.2,59.0,57,30.04,-9999.0,ESE,4.6,-,N/A,,Clear,120,2014-03-28 11:00:00
2:00 PM,76,59,45,30.02,12,SSE,9.2,,,,Scattered Clouds,160,2014-03-28 12:00:00
2:00 PM,75.2,59.0,57,30.01,6.2,SSE,9.2,-,N/A,,Partly Cloudy,160,2014-03-28 12:00:00
3:00 PM,77.0,59.0,54,30.01,5.0,SE,8.1,-,N/A,,Smoke,130,2014-03-28 13:00:00
4:00 PM,75.2,55.4,50,29.98,-9999.0,ESE,8.1,-,N/A,,Clear,110,2014-03-28 14:00:00
5:00 PM,73,55,43,29.99,12,ESE,8.1,,,,Clear,110,2014-03-28 15:00:00
5:00 PM,73.4,55.4,53,29.98,-9999.0,ESE,8.1,-,N/A,,Clear,110,2014-03-28 15:00:00
6:00 PM,69.8,55.4,60,29.98,-9999.0,East,6.9,-,N/A,,Clear,100,2014-03-28 16:00:00
7:00 PM,66.2,55.4,68,29.98,-9999.0,East,8.1,-,N/A,,Clear,80,2014-03-28 17:00:00
8:00 PM,65,58,70,29.99,12,NNE,3.5,,,,Clear,20,2014-03-28 18:00:00
8:00 PM,64.4,57.2,77,29.98,-9999.0,NNE,3.5,-,N/A,,Clear,20,2014-03-28 18:00:00
9:00 PM,64.4,59.0,83,29.98,-9999.0,North,3.5,-,N/A,,Clear,350,2014-03-28 19:00:00
11:00 PM,60.8,55.4,82,29.98,-9999.0,NNW,3.5,-,N/A,,Clear,340,2014-03-28 21:00:00